Terminal Aerodrome Forecast
Issued by NWS Sterling, VA

Current Version | Previous Version | Text Only | Print | Product List | Glossary Off
Versions: 1 2 3 4 5 6 7 8 9 10 11 12 13 14 15 16 17 18 19 20 21

032
FTUS41 KLWX 232329
TAFDCA
TAF
KDCA 232329Z 2400/2506 30010G18KT P6SM FEW050
     FM240200 27008KT P6SM FEW050
     FM241100 31012G21KT P6SM SCT050
     FM242300 33008KT P6SM SCT050=

USA.gov is the U.S. government's official web portal to all federal, state and local government web resources and services.